Time;durP1;ratioP1;P1;durP2;ratioP2;P2;SDS_P1;SDS_P2;PMS_P1;PMS_P2;Temp;Humidity;BMP_temperature;BMP_pressure;BME280_temperature;BME280_humidity;BME280_pressure;Samples;Min_cycle;Max_cycle;Signal;HPM_P1;HPM_P2
2023/09/02 00:02:18;;;;;;;7.20;3.58;;;18.60;99.90;;;;;;5029482;28;20073;-38
2023/09/02 00:04:43;;;;;;;7.13;3.58;;;18.70;99.90;;;;;;5030948;28;20559;-37
2023/09/02 00:07:09;;;;;;;6.82;4.00;;;17.60;99.90;;;;;;5030880;28;20541;-39
2023/09/02 00:09:34;;;;;;;6.55;3.90;;;18.40;99.90;;;;;;5030969;28;20073;-39
2023/09/02 00:12:00;;;;;;;7.65;3.38;;;17.80;99.90;;;;;;5030841;28;20044;-38
2023/09/02 00:14:26;;;;;;;6.10;3.63;;;18.40;99.90;;;;;;5029483;28;20073;-38
2023/09/02 00:16:51;;;;;;;7.00;3.97;;;17.70;99.90;;;;;;5030717;28;20474;-35
2023/09/02 00:19:17;;;;;;;6.68;3.90;;;18.40;99.90;;;;;;5029251;28;20059;-35
2023/09/02 00:21:43;;;;;;;7.50;3.63;;;18.70;99.90;;;;;;5030831;28;20404;-37
2023/09/02 00:24:08;;;;;;;8.40;3.97;;;17.80;99.90;;;;;;5030307;28;20029;-37
2023/09/02 00:26:34;;;;;;;6.93;3.72;;;18.20;99.90;;;;;;5030263;28;20182;-42
2023/09/02 00:29:00;;;;;;;6.80;3.70;;;18.20;99.90;;;;;;5031032;28;20073;-38
2023/09/02 00:31:27;;;;;;;6.75;4.22;;;18.40;99.90;;;;;;5030636;28;20041;-38
2023/09/02 00:33:53;;;;;;;6.80;4.25;;;17.50;99.90;;;;;;5028782;28;20045;-38
2023/09/02 00:36:19;;;;;;;7.03;4.40;;;17.80;99.90;;;;;;5030750;28;20041;-37
2023/09/02 00:38:44;;;;;;;6.68;4.45;;;17.80;99.90;;;;;;5029939;28;20093;-36
2023/09/02 00:41:26;;;;;;;7.90;4.82;;;18.50;99.90;;;;;;5030662;28;20065;-38
2023/09/02 00:43:55;;;;;;;8.07;3.90;;;17.60;99.90;;;;;;5029934;28;20454;-36
2023/09/02 00:46:22;;;;;;;8.43;4.50;;;18.30;99.90;;;;;;5030342;28;20044;-36
2023/09/02 00:48:48;;;;;;;7.63;4.25;;;17.30;99.90;;;;;;5029565;28;20380;-36
2023/09/02 00:51:14;;;;;;;8.63;4.93;;;17.30;99.90;;;;;;5030631;28;20036;-36
2023/09/02 00:53:39;;;;;;;7.25;4.30;;;17.50;99.90;;;;;;5028575;28;20549;-37
2023/09/02 00:56:05;;;;;;;9.70;4.28;;;17.30;99.90;;;;;;5028263;28;20427;-35
2023/09/02 00:58:31;;;;;;;7.30;4.20;;;17.50;99.90;;;;;;5029601;28;20049;-37
2023/09/02 01:00:58;;;;;;;7.40;4.13;;;17.30;99.90;;;;;;5030201;28;20056;-36
2023/09/02 01:03:24;;;;;;;7.15;4.40;;;17.30;99.90;;;;;;5030246;28;20052;-38
2023/09/02 01:05:49;;;;;;;7.40;4.70;;;17.70;99.90;;;;;;5029691;28;20043;-38
2023/09/02 01:08:19;;;;;;;7.50;4.15;;;17.90;99.90;;;;;;5030086;28;20116;-38
2023/09/02 01:10:44;;;;;;;7.95;4.28;;;17.30;99.90;;;;;;5029762;28;20437;-36
2023/09/02 01:13:10;;;;;;;6.97;4.10;;;17.40;99.90;;;;;;5030278;28;20037;-36
2023/09/02 01:15:36;;;;;;;8.60;4.57;;;17.60;99.90;;;;;;5029375;28;20037;-38
2023/09/02 01:18:03;;;;;;;6.88;4.07;;;18.20;99.90;;;;;;5030264;28;20102;-35
2023/09/02 01:21:01;;;;;;;7.20;3.70;;;18.20;99.90;;;;;;5028686;28;20290;-38
2023/09/02 01:24:04;;;;;;;7.47;4.20;;;17.60;99.90;;;;;;5025415;28;20044;-39
2023/09/02 01:27:05;;;;;;;7.75;4.45;;;17.00;99.90;;;;;;5026418;28;20046;-35
2023/09/02 01:29:35;;;;;;;8.07;4.50;;;17.10;99.90;;;;;;5025864;28;20045;-36
2023/09/02 01:32:01;;;;;;;7.82;4.25;;;17.20;99.90;;;;;;5029252;28;20046;-36
2023/09/02 01:34:30;;;;;;;8.40;4.35;;;17.50;99.90;;;;;;5029619;28;20077;-37
2023/09/02 01:36:59;;;;;;;7.80;4.95;;;17.80;99.90;;;;;;5027812;28;20116;-36
2023/09/02 01:39:26;;;;;;;8.55;4.43;;;17.80;99.90;;;;;;5029654;28;20040;-35
2023/09/02 01:41:53;;;;;;;7.05;4.07;;;17.70;99.90;;;;;;5024607;28;20080;-38
2023/09/02 01:44:20;;;;;;;7.03;4.18;;;18.10;99.90;;;;;;5029567;28;20033;-37
2023/09/02 01:46:46;;;;;;;8.00;4.28;;;17.00;99.90;;;;;;5028741;28;20132;-35
2023/09/02 01:49:13;;;;;;;7.18;4.38;;;17.90;99.90;;;;;;5029342;28;20092;-36
2023/09/02 01:51:40;;;;;;;8.27;4.65;;;17.60;99.90;;;;;;5029131;28;20084;-41
2023/09/02 01:54:06;;;;;;;6.70;4.20;;;17.60;99.90;;;;;;5028948;28;20037;-38
2023/09/02 01:56:32;;;;;;;9.10;4.45;;;17.40;99.90;;;;;;5029401;28;20049;-38
2023/09/02 01:58:58;;;;;;;7.95;4.90;;;17.30;99.90;;;;;;5028972;28;20030;-38
2023/09/02 02:01:24;;;;;;;8.15;5.00;;;17.70;99.90;;;;;;5029444;28;20349;-35
2023/09/02 02:03:56;;;;;;;6.53;4.18;;;17.30;99.90;;;;;;5026711;28;20075;-37
2023/09/02 02:06:24;;;;;;;6.72;3.88;;;17.30;99.90;;;;;;5028400;28;20053;-40
2023/09/02 02:09:00;;;;;;;8.80;4.90;;;17.50;99.90;;;;;;5028827;28;20399;-38
2023/09/02 02:11:28;;;;;;;7.95;4.22;;;17.40;99.90;;;;;;5029515;28;20053;-36
2023/09/02 02:14:00;;;;;;;7.93;4.78;;;17.80;99.90;;;;;;5028447;28;20040;-37
2023/09/02 02:16:26;;;;;;;7.63;4.45;;;17.40;99.90;;;;;;5027950;28;20041;-36
2023/09/02 02:18:51;;;;;;;8.73;4.85;;;16.90;99.90;;;;;;5028872;28;20103;-35
2023/09/02 02:21:17;;;;;;;7.47;4.65;;;17.40;99.90;;;;;;5018391;28;20436;-38
2023/09/02 02:23:43;;;;;;;7.00;4.25;;;17.20;99.90;;;;;;5025752;28;20104;-35
2023/09/02 02:26:09;;;;;;;10.25;4.97;;;17.30;99.90;;;;;;5027839;28;20487;-39
2023/09/02 02:28:38;;;;;;;7.68;4.72;;;17.30;99.90;;;;;;5024341;28;20378;-36
2023/09/02 02:31:04;;;;;;;7.28;4.88;;;17.10;99.90;;;;;;5029152;28;20415;-39
2023/09/02 02:33:29;;;;;;;8.77;4.90;;;17.40;99.90;;;;;;5030353;28;20060;-37
2023/09/02 02:35:58;;;;;;;8.98;4.57;;;17.70;99.90;;;;;;5032113;28;20037;-39
2023/09/02 02:38:23;;;;;;;8.32;4.72;;;17.10;99.90;;;;;;5029407;28;20033;-39
2023/09/02 02:40:49;;;;;;;7.57;4.60;;;17.20;99.90;;;;;;5032463;28;20033;-36
2023/09/02 02:43:14;;;;;;;8.80;4.75;;;17.30;99.90;;;;;;5032673;28;20045;-35
2023/09/02 02:45:41;;;;;;;8.70;4.32;;;17.20;99.90;;;;;;5032549;28;20033;-38
2023/09/02 02:48:14;;;;;;;7.38;4.28;;;16.80;99.90;;;;;;5032194;28;20415;-38
2023/09/02 02:50:40;;;;;;;9.17;4.80;;;17.40;99.90;;;;;;5032878;28;20041;-38
2023/09/02 02:53:07;;;;;;;8.15;5.25;;;17.40;99.90;;;;;;5032005;28;20099;-35
2023/09/02 02:55:33;;;;;;;7.50;4.70;;;17.20;99.90;;;;;;5032417;28;20041;-38
2023/09/02 02:57:59;;;;;;;8.20;5.22;;;16.60;99.90;;;;;;5014618;28;20052;-37
2023/09/02 03:00:24;;;;;;;7.40;5.18;;;17.10;99.90;;;;;;5032624;28;20029;-39
2023/09/02 03:02:53;;;;;;;8.02;4.47;;;17.30;99.90;;;;;;5031702;28;20087;-37
2023/09/02 03:05:20;;;;;;;7.20;4.20;;;17.40;99.90;;;;;;5032287;28;20515;-39
2023/09/02 03:07:47;;;;;;;7.45;4.75;;;17.20;99.90;;;;;;5030830;28;20045;-41
2023/09/02 03:10:13;;;;;;;8.52;5.03;;;17.50;99.90;;;;;;5032153;28;20484;-37
2023/09/02 03:12:38;;;;;;;7.53;3.97;;;16.50;99.90;;;;;;5030633;28;20048;-35
2023/09/02 03:15:05;;;;;;;10.43;4.97;;;17.20;99.90;;;;;;5031564;28;20037;-38
2023/09/02 03:17:30;;;;;;;8.27;4.90;;;17.10;99.90;;;;;;5031918;28;20037;-37
2023/09/02 03:19:56;;;;;;;7.95;4.78;;;17.30;99.90;;;;;;5030667;28;20390;-38
2023/09/02 03:22:21;;;;;;;8.30;4.60;;;16.50;99.90;;;;;;5032091;28;20041;-40
2023/09/02 03:24:52;;;;;;;9.13;4.88;;;;;;;;;;5032219;28;20052;-38
2023/09/02 03:27:18;;;;;;;8.50;4.57;;;16.60;99.90;;;;;;5031803;28;20076;-37
2023/09/02 03:29:48;;;;;;;7.53;4.40;;;17.50;99.90;;;;;;5031971;28;20087;-37
2023/09/02 03:32:13;;;;;;;7.25;4.75;;;16.50;99.90;;;;;;5029679;28;20495;-36
2023/09/02 03:34:39;;;;;;;8.88;5.10;;;17.20;99.90;;;;;;5030044;28;20043;-38
2023/09/02 03:37:05;;;;;;;7.63;5.10;;;17.10;99.90;;;;;;5031080;28;20041;-37
2023/09/02 03:39:33;;;;;;;7.20;4.55;;;17.00;99.90;;;;;;5030392;28;20041;-37
2023/09/02 03:42:02;;;;;;;7.72;4.65;;;17.20;99.90;;;;;;5030658;28;20034;-39
2023/09/02 03:44:28;;;;;;;6.63;4.22;;;17.10;99.90;;;;;;5031880;28;20038;-36
2023/09/02 03:46:53;;;;;;;7.63;4.88;;;17.20;99.90;;;;;;5031106;28;20742;-37
2023/09/02 03:49:22;;;;;;;9.38;5.28;;;16.80;99.90;;;;;;5031520;28;20057;-36
2023/09/02 03:51:47;;;;;;;9.38;5.00;;;17.00;99.90;;;;;;5031550;28;20171;-39
2023/09/02 03:54:13;;;;;;;8.35;4.72;;;16.30;1.00;;;;;;5030559;28;20120;-36
2023/09/02 03:56:39;;;;;;;8.30;4.50;;;17.40;1.00;;;;;;5031123;28;20037;-35
2023/09/02 03:59:08;;;;;;;8.18;4.60;;;17.00;1.00;;;;;;5029631;28;20041;-35
2023/09/02 04:01:34;;;;;;;6.70;4.35;;;17.20;99.90;;;;;;5031064;28;20053;-39
2023/09/02 04:04:00;;;;;;;7.15;4.47;;;16.80;1.00;;;;;;5030863;28;20492;-37
2023/09/02 04:06:25;;;;;;;6.68;4.22;;;16.60;99.90;;;;;;5031367;28;20239;-38
2023/09/02 04:08:51;;;;;;;7.78;5.15;;;17.10;99.90;;;;;;5031245;28;20042;-35
2023/09/02 04:11:17;;;;;;;10.82;5.50;;;16.90;1.00;;;;;;5024961;28;20041;-37
2023/09/02 04:13:43;;;;;;;7.88;4.38;;;17.00;99.90;;;;;;5030757;28;20060;-38
2023/09/02 04:16:10;;;;;;;7.78;4.57;;;16.90;99.90;;;;;;5029449;28;20095;-35
2023/09/02 04:18:39;;;;;;;7.10;4.53;;;16.90;99.90;;;;;;5028977;28;20042;-35
2023/09/02 04:21:08;;;;;;;7.63;4.85;;;17.40;99.90;;;;;;5029579;28;20045;-35
2023/09/02 04:23:34;;;;;;;8.40;4.97;;;17.40;99.90;;;;;;5030587;28;20045;-38
2023/09/02 04:26:00;;;;;;;8.30;5.22;;;17.20;99.90;;;;;;5030155;28;20388;-38
2023/09/02 04:28:26;;;;;;;9.30;4.85;;;17.00;99.90;;;;;;5030539;28;20041;-38
2023/09/02 04:30:54;;;;;;;8.93;5.10;;;17.00;99.90;;;;;;5031013;28;20493;-40
2023/09/02 04:33:23;;;;;;;7.45;4.70;;;17.50;99.90;;;;;;5024263;28;20037;-39
2023/09/02 04:35:50;;;;;;;11.85;4.90;;;16.80;99.90;;;;;;5030189;28;20402;-35
2023/09/02 04:38:16;;;;;;;8.23;4.82;;;16.60;99.90;;;;;;5029028;28;20582;-35
2023/09/02 04:40:43;;;;;;;7.72;5.25;;;16.20;99.90;;;;;;5025257;28;20485;-41
2023/09/02 04:43:11;;;;;;;7.15;4.90;;;17.20;99.90;;;;;;5028247;28;20048;-37
2023/09/02 04:45:39;;;;;;;7.35;4.90;;;17.00;99.90;;;;;;5010833;28;20049;-38
2023/09/02 04:48:06;;;;;;;9.07;5.05;;;16.90;99.90;;;;;;5028968;28;20126;-38
2023/09/02 04:50:34;;;;;;;8.05;5.38;;;17.20;99.90;;;;;;5030345;28;20045;-37
2023/09/02 04:53:00;;;;;;;8.13;5.28;;;16.10;99.90;;;;;;5028335;28;20518;-35
2023/09/02 04:55:26;;;;;;;9.23;5.55;;;17.20;99.90;;;;;;5029729;28;20045;-36
2023/09/02 04:57:53;;;;;;;7.95;5.32;;;16.50;99.90;;;;;;5030313;28;20399;-38
2023/09/02 05:00:19;;;;;;;12.40;5.45;;;17.00;99.90;;;;;;5030022;28;20064;-37
2023/09/02 05:02:46;;;;;;;7.32;5.03;;;17.00;99.90;;;;;;5030102;28;20055;-38
2023/09/02 05:05:17;;;;;;;7.72;5.65;;;16.90;99.90;;;;;;5027632;28;20045;-38
2023/09/02 05:07:50;;;;;;;7.70;4.88;;;;;;;;;;5024927;28;20053;-37
2023/09/02 05:10:16;;;;;;;10.95;5.30;;;16.90;99.90;;;;;;5029875;28;20132;-39
2023/09/02 05:12:42;;;;;;;9.02;5.47;;;16.70;99.90;;;;;;5029773;28;20054;-42
2023/09/02 05:15:11;;;;;;;9.25;5.68;;;16.10;99.90;;;;;;5029403;28;20033;-35
2023/09/02 05:17:36;;;;;;;9.35;5.88;;;17.20;99.90;;;;;;5028739;28;20033;-38
2023/09/02 05:20:04;;;;;;;8.43;5.53;;;16.70;99.90;;;;;;5029434;28;20053;-39
2023/09/02 05:22:29;;;;;;;10.63;6.00;;;16.10;99.90;;;;;;5029386;28;20080;-38
2023/09/02 05:24:55;;;;;;;8.15;5.63;;;17.20;99.90;;;;;;5028739;28;20499;-36
2023/09/02 05:27:21;;;;;;;9.35;5.80;;;16.80;99.90;;;;;;5029332;28;20116;-38
2023/09/02 05:29:47;;;;;;;8.60;5.55;;;17.10;99.90;;;;;;5029715;28;20037;-38
2023/09/02 05:32:13;;;;;;;10.88;5.82;;;16.70;1.00;;;;;;5028967;28;20061;-35
2023/09/02 05:34:40;;;;;;;7.70;4.72;;;17.10;99.90;;;;;;5029624;28;20513;-39
2023/09/02 05:37:05;;;;;;;8.32;5.35;;;16.30;1.00;;;;;;5027927;28;20039;-36
2023/09/02 05:39:31;;;;;;;8.75;4.70;;;17.30;1.00;;;;;;5017926;28;20034;-39
2023/09/02 05:41:57;;;;;;;8.13;5.18;;;16.40;1.00;;;;;;5025630;28;20026;-36
2023/09/02 05:44:22;;;;;;;9.38;5.85;;;16.90;1.00;;;;;;5029416;28;20030;-36
2023/09/02 05:46:49;;;;;;;9.40;5.38;;;17.00;1.00;;;;;;5028582;28;20076;-37
2023/09/02 05:49:15;;;;;;;7.68;5.07;;;17.20;1.00;;;;;;5028921;28;20076;-35
2023/09/02 05:51:41;;;;;;;8.93;5.38;;;16.40;1.00;;;;;;5030001;28;20064;-36
2023/09/02 05:54:09;;;;;;;8.38;5.55;;;16.20;1.00;;;;;;5028771;28;20030;-38
2023/09/02 05:56:38;;;;;;;7.25;5.00;;;16.50;1.00;;;;;;5029407;28;20037;-38
2023/09/02 05:59:04;;;;;;;10.90;5.07;;;16.50;1.00;;;;;;5031463;28;20037;-35
2023/09/02 06:01:30;;;;;;;8.05;4.72;;;16.80;1.00;;;;;;5031898;28;20052;-35
2023/09/02 06:03:56;;;;;;;7.95;4.85;;;16.70;1.00;;;;;;5026704;28;20037;-36
2023/09/02 06:06:22;;;;;;;9.23;5.20;;;16.90;1.00;;;;;;5032844;28;20553;-37
2023/09/02 06:08:48;;;;;;;9.25;5.65;;;16.90;1.00;;;;;;5033535;28;20438;-38
2023/09/02 06:11:14;;;;;;;7.57;4.63;;;16.20;1.00;;;;;;5033321;28;20087;-37
2023/09/02 06:13:40;;;;;;;7.50;4.47;;;17.00;1.00;;;;;;5028240;28;20073;-38
2023/09/02 06:16:06;;;;;;;7.80;4.35;;;17.10;1.00;;;;;;5029722;28;20072;-39
2023/09/02 06:18:33;;;;;;;7.70;4.68;;;16.30;1.00;;;;;;5033147;28;20499;-37
2023/09/02 06:21:07;;;;;;;8.00;4.70;;;16.90;1.00;;;;;;5033226;28;20037;-35
2023/09/02 06:23:32;;;;;;;7.28;4.60;;;17.20;1.00;;;;;;5029616;28;20049;-35
2023/09/02 06:25:59;;;;;;;7.22;4.32;;;17.20;1.00;;;;;;5033088;28;20496;-38
2023/09/02 06:28:26;;;;;;;7.32;4.78;;;17.00;1.00;;;;;;5031544;28;21108;-36
2023/09/02 06:30:52;;;;;;;8.95;4.00;;;17.10;1.00;;;;;;5032493;28;20268;-35
2023/09/02 06:33:24;;;;;;;7.55;4.00;;;16.80;1.00;;;;;;5027059;28;20042;-37
2023/09/02 06:35:50;;;;;;;7.18;3.88;;;17.40;1.00;;;;;;5032417;28;20091;-37
2023/09/02 06:38:17;;;;;;;8.48;4.55;;;17.00;1.00;;;;;;5032824;28;20034;-36
2023/09/02 06:40:43;;;;;;;7.97;4.28;;;17.00;1.00;;;;;;5032707;28;20063;-39
2023/09/02 06:43:09;;;;;;;7.25;3.95;;;17.20;1.00;;;;;;5025531;28;20029;-40
2023/09/02 06:45:34;;;;;;;9.35;4.60;;;17.10;2.10;;;;;;5032621;28;20037;-35
2023/09/02 06:48:00;;;;;;;7.85;4.65;;;17.60;9.20;;;;;;5032792;28;20458;-35
2023/09/02 06:50:27;;;;;;;6.85;4.28;;;17.30;15.40;;;;;;5031651;28;20037;-38
2023/09/02 06:52:53;;;;;;;7.75;4.32;;;17.10;25.50;;;;;;5023671;28;20120;-38
2023/09/02 06:55:19;;;;;;;7.95;4.60;;;17.80;31.00;;;;;;5032134;28;20124;-37
2023/09/02 06:57:44;;;;;;;8.93;4.40;;;16.50;36.40;;;;;;5032437;28;20061;-35
2023/09/02 07:00:12;;;;;;;7.82;4.22;;;17.70;48.50;;;;;;5014237;28;20033;-37
2023/09/02 07:02:38;;;;;;;7.60;4.65;;;15.80;56.70;;;;;;5031805;28;20045;-35
2023/09/02 07:05:04;;;;;;;7.25;4.90;;;16.90;76.60;;;;;;5032039;28;20060;-36
2023/09/02 07:07:29;;;;;;;7.07;4.18;;;17.20;99.90;;;;;;5031078;28;20042;-35
2023/09/02 07:09:55;;;;;;;7.75;4.00;;;17.00;99.90;;;;;;5031214;28;20566;-37
2023/09/02 07:12:21;;;;;;;8.43;4.55;;;17.80;99.90;;;;;;5031459;28;20523;-38
2023/09/02 07:14:47;;;;;;;7.95;5.00;;;17.10;1.00;;;;;;5031342;28;20518;-40
2023/09/02 07:17:12;;;;;;;7.85;3.85;;;17.90;1.00;;;;;;5031201;28;20072;-35
2023/09/02 07:19:38;;;;;;;7.93;4.13;;;17.60;1.00;;;;;;5031712;28;20545;-36
2023/09/02 07:22:04;;;;;;;8.98;4.20;;;17.40;1.00;;;;;;5031631;28;20041;-38
2023/09/02 07:24:30;;;;;;;5.75;2.67;;;17.80;1.00;;;;;;5027675;28;20425;-38
2023/09/02 07:26:56;;;;;;;9.27;3.92;;;17.10;1.00;;;;;;5031451;28;20041;-38
2023/09/02 07:29:21;;;;;;;15.18;4.50;;;17.10;1.00;;;;;;5027445;28;20525;-40
2023/09/02 07:31:47;;;;;;;14.55;4.20;;;17.80;1.00;;;;;;5026877;28;20507;-37
2023/09/02 07:34:13;;;;;;;25.00;4.80;;;17.50;1.00;;;;;;5013144;28;20041;-39
2023/09/02 07:36:39;;;;;;;20.67;5.95;;;17.70;1.00;;;;;;5020485;28;20045;-36
2023/09/02 07:39:05;;;;;;;25.33;7.65;;;17.60;1.00;;;;;;5008988;28;20041;-37
2023/09/02 07:41:30;;;;;;;22.23;6.30;;;17.70;1.00;;;;;;5028817;28;20082;-39
2023/09/02 07:43:56;;;;;;;23.55;6.70;;;17.60;1.00;;;;;;5021772;28;20034;-41
2023/09/02 07:46:22;;;;;;;18.50;6.43;;;18.20;1.00;;;;;;5028795;28;20041;-40
2023/09/02 07:48:49;;;;;;;16.15;6.63;;;17.10;1.00;;;;;;5027191;28;20369;-37
2023/09/02 07:51:16;;;;;;;19.13;7.10;;;17.80;1.00;;;;;;5029882;28;20540;-40
2023/09/02 07:53:42;;;;;;;14.45;5.53;;;17.70;1.00;;;;;;5029173;28;20041;-39
2023/09/02 07:56:08;;;;;;;15.57;5.90;;;17.70;1.00;;;;;;5012595;28;20410;-39
2023/09/02 07:58:33;;;;;;;17.60;5.25;;;18.40;1.00;;;;;;5029397;28;20044;-42
2023/09/02 08:00:59;;;;;;;13.13;5.13;;;19.40;1.00;;;;;;5030251;28;20033;-44
2023/09/02 08:03:25;;;;;;;13.50;4.97;;;17.80;1.00;;;;;;5029099;28;20129;-38
2023/09/02 08:05:50;;;;;;;13.52;4.45;;;18.00;1.00;;;;;;5029507;28;20480;-37
2023/09/02 08:08:19;;;;;;;9.82;3.80;;;18.40;1.00;;;;;;5029220;28;20084;-39
2023/09/02 08:10:45;;;;;;;7.55;3.60;;;18.10;1.00;;;;;;5030503;28;20065;-39
2023/09/02 08:13:10;;;;;;;8.93;4.13;;;17.70;1.00;;;;;;5029331;28;20112;-36
2023/09/02 08:15:39;;;;;;;7.57;3.67;;;18.30;1.00;;;;;;5029523;28;20183;-38
2023/09/02 08:18:05;;;;;;;7.75;3.17;;;17.90;1.00;;;;;;5030529;28;20488;-42
2023/09/02 08:20:31;;;;;;;8.10;3.10;;;18.20;1.00;;;;;;5029264;28;20176;-40
2023/09/02 08:22:58;;;;;;;8.93;3.10;;;17.60;1.00;;;;;;5029537;28;20507;-39
2023/09/02 08:25:24;;;;;;;7.85;2.97;;;18.20;1.00;;;;;;5029902;28;20030;-37
2023/09/02 08:27:49;;;;;;;8.10;3.35;;;18.40;1.00;;;;;;5029954;28;20036;-39
2023/09/02 08:30:15;;;;;;;6.65;2.83;;;18.40;1.00;;;;;;5027927;28;20057;-39
2023/09/02 08:32:41;;;;;;;6.78;2.38;;;18.40;1.00;;;;;;5026064;28;20117;-39
2023/09/02 08:35:12;;;;;;;6.00;2.35;;;18.10;1.00;;;;;;5029909;28;20033;-40
2023/09/02 08:37:38;;;;;;;6.43;2.17;;;18.80;1.00;;;;;;5028652;28;20068;-36
2023/09/02 08:40:04;;;;;;;4.75;2.13;;;18.50;1.00;;;;;;5028460;28;20487;-39
2023/09/02 08:42:34;;;;;;;4.65;1.92;;;18.30;1.00;;;;;;5026508;28;20116;-38
2023/09/02 08:45:05;;;;;;;6.57;2.17;;;17.50;1.00;;;;;;5028060;28;20030;-41
2023/09/02 08:47:34;;;;;;;6.03;2.05;;;18.20;1.00;;;;;;5029635;28;20376;-41
2023/09/02 08:50:01;;;;;;;4.78;1.95;;;18.70;1.00;;;;;;5029367;28;20404;-36
2023/09/02 08:52:27;;;;;;;4.72;1.88;;;18.70;1.00;;;;;;5028956;28;20041;-40
2023/09/02 08:54:54;;;;;;;5.07;1.80;;;18.60;1.00;;;;;;5025078;28;20040;-39
2023/09/02 08:57:20;;;;;;;4.75;2.00;;;18.70;1.00;;;;;;5021833;28;20049;-42
2023/09/02 08:59:46;;;;;;;4.70;1.60;;;18.70;1.00;;;;;;5024004;28;20042;-39
2023/09/02 09:02:12;;;;;;;5.65;1.70;;;18.60;1.00;;;;;;5025757;28;20048;-38
2023/09/02 09:04:39;;;;;;;4.65;1.73;;;18.70;1.00;;;;;;5024700;28;20379;-36
2023/09/02 09:07:05;;;;;;;4.30;1.80;;;18.70;1.00;;;;;;5022545;28;20073;-41
2023/09/02 09:09:39;;;;;;;7.97;1.90;;;18.50;1.00;;;;;;5024808;28;20569;-40
2023/09/02 09:12:08;;;;;;;5.25;2.00;;;18.90;1.00;;;;;;5029191;28;20043;-42
2023/09/02 09:14:37;;;;;;;4.40;1.75;;;18.60;1.00;;;;;;5026781;28;20119;-39
2023/09/02 09:17:03;;;;;;;4.80;1.80;;;18.80;1.00;;;;;;5024959;28;20140;-40
2023/09/02 09:19:30;;;;;;;6.20;1.95;;;18.60;1.00;;;;;;5024495;28;20241;-40
2023/09/02 09:21:56;;;;;;;6.53;1.70;;;18.70;99.90;;;;;;5021510;28;20030;-40
2023/09/02 09:24:22;;;;;;;5.40;1.90;;;18.70;99.90;;;;;;5016132;28;20326;-39
2023/09/02 09:26:49;;;;;;;5.95;2.15;;;18.30;99.90;;;;;;5002952;28;20131;-42
2023/09/02 09:29:16;;;;;;;6.80;2.42;;;18.70;99.90;;;;;;5023503;28;20093;-41
2023/09/02 09:31:42;;;;;;;4.75;1.98;;;18.10;99.90;;;;;;5027684;28;20041;-37
2023/09/02 09:34:08;;;;;;;7.10;2.42;;;18.60;99.90;;;;;;5013782;28;20158;-40
2023/09/02 09:36:35;;;;;;;5.43;2.03;;;18.50;99.90;;;;;;5016190;28;20038;-37
2023/09/02 09:39:06;;;;;;;5.60;2.50;;;18.90;99.90;;;;;;5014724;28;20142;-40
2023/09/02 09:41:32;;;;;;;6.43;2.70;;;18.60;99.90;;;;;;5028285;28;20044;-40
2023/09/02 09:44:13;;;;;;;4.60;2.17;;;18.70;99.90;;;;;;5010883;28;20041;-40
2023/09/02 09:46:51;;;;;;;6.05;2.38;;;18.50;99.90;;;;;;5028387;28;20044;-37
2023/09/02 09:49:23;;;;;;;5.38;2.20;;;18.70;99.90;;;;;;5018724;28;20118;-40
2023/09/02 09:52:12;;;;;;;5.40;2.22;;;18.70;99.90;;;;;;5027473;28;20037;-39
2023/09/02 09:54:48;;;;;;;6.82;2.55;;;18.90;99.90;;;;;;5023842;28;20452;-39
2023/09/02 09:57:29;;;;;;;8.05;2.53;;;18.70;99.90;;;;;;5021832;28;20042;-39
2023/09/02 09:59:57;;;;;;;5.85;2.13;;;18.70;99.90;;;;;;5024482;28;20045;-39
2023/09/02 10:02:26;;;;;;;6.68;2.38;;;18.70;99.90;;;;;;5028319;28;20407;-40
2023/09/02 10:04:55;;;;;;;5.45;2.20;;;18.90;99.90;;;;;;5006961;28;20049;-41
2023/09/02 10:07:31;;;;;;;5.88;2.67;;;18.90;99.90;;;;;;5023314;28;20453;-38
2023/09/02 10:10:07;;;;;;;7.68;2.42;;;18.60;99.90;;;;;;5012319;28;20403;-35
2023/09/02 10:12:34;;;;;;;5.93;2.28;;;19.30;99.90;;;;;;5024713;28;20060;-37
2023/09/02 10:15:03;;;;;;;6.35;2.17;;;19.30;99.90;;;;;;5026755;28;20071;-36
2023/09/02 10:17:30;;;;;;;5.05;2.20;;;20.90;99.90;;;;;;5027527;28;20064;-37
2023/09/02 10:19:56;;;;;;;5.70;1.83;;;19.00;99.90;;;;;;5026391;28;20065;-38
2023/09/02 10:22:29;;;;;;;6.28;2.13;;;18.40;99.90;;;;;;5007953;28;20061;-36
2023/09/02 10:25:18;;;;;;;6.90;2.20;;;19.60;99.90;;;;;;5022665;28;20037;-39
2023/09/02 10:27:56;;;;;;;6.40;2.53;;;19.10;99.90;;;;;;5027385;28;20037;-36
2023/09/02 10:30:25;;;;;;;5.35;2.10;;;19.00;99.90;;;;;;5027026;28;20103;-38
2023/09/02 10:32:59;;;;;;;5.57;2.00;;;19.00;99.90;;;;;;5026267;28;20121;-36
2023/09/02 10:35:30;;;;;;;5.82;2.20;;;18.80;99.90;;;;;;5024038;28;20099;-40
2023/09/02 10:38:02;;;;;;;10.75;2.55;;;19.10;99.90;;;;;;5023306;28;20033;-36
2023/09/02 10:40:31;;;;;;;6.03;2.03;;;19.20;99.90;;;;;;5027153;28;20042;-38
2023/09/02 10:43:01;;;;;;;5.32;2.10;;;19.00;99.90;;;;;;5028511;28;20500;-36
2023/09/02 10:45:28;;;;;;;6.20;2.30;;;19.00;99.90;;;;;;5026321;28;20037;-37
2023/09/02 10:47:54;;;;;;;5.95;2.13;;;19.20;99.90;;;;;;5030892;28;20040;-37
2023/09/02 10:50:21;;;;;;;7.10;2.20;;;19.20;99.90;;;;;;5014252;28;20037;-36
2023/09/02 10:52:49;;;;;;;6.78;2.40;;;19.10;99.90;;;;;;5031267;28;20403;-38
2023/09/02 10:55:15;;;;;;;6.35;2.17;;;19.30;99.90;;;;;;5029509;28;20055;-38
2023/09/02 10:57:52;;;;;;;6.00;2.72;;;19.00;99.90;;;;;;5031619;28;20049;-38
2023/09/02 11:00:23;;;;;;;4.63;1.90;;;19.20;99.90;;;;;;5024454;28;20537;-38
2023/09/02 11:02:54;;;;;;;6.05;2.08;;;19.00;99.90;;;;;;5013575;28;20033;-35
2023/09/02 11:05:21;;;;;;;4.28;1.63;;;19.00;99.90;;;;;;5026509;28;20447;-39
2023/09/02 11:07:48;;;;;;;5.60;2.30;;;19.10;99.90;;;;;;5029318;28;20073;-38
2023/09/02 11:10:16;;;;;;;5.35;2.05;;;19.10;99.90;;;;;;5031730;28;20048;-36
2023/09/02 11:12:59;;;;;;;7.60;2.40;;;19.20;99.90;;;;;;5030793;28;20056;-36
2023/09/02 11:15:29;;;;;;;6.05;2.00;;;18.60;99.90;;;;;;5031233;28;20403;-38
2023/09/02 11:17:55;;;;;;;5.85;2.08;;;19.10;99.90;;;;;;5029949;28;20306;-38
2023/09/02 11:20:25;;;;;;;6.53;2.50;;;19.40;99.90;;;;;;5018250;28;20038;-38
2023/09/02 11:22:59;;;;;;;5.03;2.08;;;19.90;99.90;;;;;;5028631;28;20383;-39
2023/09/02 11:25:27;;;;;;;5.97;2.67;;;19.30;99.90;;;;;;5031665;28;20440;-40
2023/09/02 11:27:55;;;;;;;6.13;2.00;;;19.10;99.90;;;;;;5032018;28;20045;-38
2023/09/02 11:30:22;;;;;;;5.63;1.95;;;19.30;99.90;;;;;;5030826;28;20029;-38
2023/09/02 11:32:48;;;;;;;5.18;1.85;;;19.20;99.90;;;;;;5031522;28;20045;-38
2023/09/02 11:35:22;;;;;;;5.30;1.70;;;19.30;99.90;;;;;;5031800;28;20029;-38
2023/09/02 11:37:48;;;;;;;4.80;1.80;;;19.40;99.90;;;;;;5030742;28;20046;-37
2023/09/02 11:40:14;;;;;;;4.93;1.90;;;19.20;99.90;;;;;;5030561;28;20040;-39
2023/09/02 11:43:00;;;;;;;4.25;1.63;;;19.30;99.90;;;;;;5013828;28;20045;-38
2023/09/02 11:45:38;;;;;;;5.45;1.77;;;19.20;99.90;;;;;;5031620;28;20041;-38
2023/09/02 11:48:04;;;;;;;6.25;1.70;;;19.70;99.90;;;;;;5023806;28;20036;-36
2023/09/02 11:50:30;;;;;;;4.28;1.38;;;19.00;99.90;;;;;;5031644;28;20073;-36
2023/09/02 11:52:57;;;;;;;3.97;1.50;;;19.50;99.90;;;;;;5031272;28;20062;-38
2023/09/02 11:55:24;;;;;;;3.65;1.40;;;19.30;99.90;;;;;;5027071;28;20042;-38
2023/09/02 11:57:51;;;;;;;4.63;1.50;;;19.40;99.90;;;;;;5029392;28;20033;-38
2023/09/02 12:00:18;;;;;;;4.45;1.40;;;19.20;99.90;;;;;;5027598;28;20113;-40
2023/09/02 12:02:45;;;;;;;5.15;1.60;;;18.90;99.90;;;;;;5029753;28;20407;-37
2023/09/02 12:05:12;;;;;;;4.18;1.30;;;19.20;99.90;;;;;;5016827;28;20446;-39
2023/09/02 12:07:38;;;;;;;7.47;1.45;;;19.00;99.90;;;;;;5031581;28;20087;-38
2023/09/02 12:10:06;;;;;;;4.45;1.58;;;19.40;99.90;;;;;;5031018;28;20507;-38
2023/09/02 12:12:33;;;;;;;3.92;1.40;;;19.10;99.90;;;;;;5030762;28;20065;-34
2023/09/02 12:15:00;;;;;;;3.88;1.50;;;19.10;99.90;;;;;;5030641;28;20511;-39
2023/09/02 12:17:26;;;;;;;3.80;1.58;;;19.40;99.90;;;;;;5022624;28;20046;-39
2023/09/02 12:19:52;;;;;;;3.92;1.27;;;19.40;99.90;;;;;;5029962;28;20064;-39
2023/09/02 12:22:20;;;;;;;4.28;1.50;;;19.10;99.90;;;;;;5029521;28;20046;-38
2023/09/02 12:24:46;;;;;;;3.45;1.25;;;19.60;99.90;;;;;;5028200;28;20046;-38
2023/09/02 12:27:16;;;;;;;3.67;1.25;;;19.30;99.90;;;;;;5024630;28;20048;-39
2023/09/02 12:29:54;;;;;;;5.00;1.60;;;19.50;99.90;;;;;;5019154;28;20037;-39
2023/09/02 12:32:20;;;;;;;3.95;1.45;;;19.40;99.90;;;;;;5025890;28;20037;-38
2023/09/02 12:34:45;;;;;;;4.93;1.95;;;19.10;99.90;;;;;;5018946;28;20499;-37
2023/09/02 12:37:19;;;;;;;4.72;1.35;;;19.00;99.90;;;;;;5029982;28;20466;-40
2023/09/02 12:39:46;;;;;;;;;;;19.30;99.90;;;;;;5026779;28;20108;-37
2023/09/02 12:42:19;;;;;;;4.28;1.50;;;19.30;99.90;;;;;;5028510;28;20468;-37
2023/09/02 12:44:53;;;;;;;4.18;1.40;;;19.50;99.90;;;;;;5029374;28;20676;-37
2023/09/02 12:47:23;;;;;;;4.43;1.35;;;19.30;99.90;;;;;;5029696;28;20099;-37
2023/09/02 12:49:51;;;;;;;2.75;1.10;;;19.40;99.90;;;;;;5028059;28;20091;-38
2023/09/02 12:52:21;;;;;;;4.90;1.90;;;19.30;99.90;;;;;;5023594;28;20484;-38
2023/09/02 12:54:56;;;;;;;3.50;1.38;;;19.40;99.90;;;;;;5030105;28;20515;-38